メインページ
METAR-TAF:

METAR-TAF

空港 :

ポンタ・デルガダ空港

ポンタ・デルガダ, アゾレス諸島, ポルトガル

緯度: 37-44N, 経度: 025-42W, 海抜: 71m

現時点の気象観測

当レポートは24分前の22:30(UTC)に作成
北/北西の風 5kt
気温 20°C
湿度 73%
気圧 1027 hPa
視程10km以上
高度2300ftの雲はほとんどない

METAR: LPPD 172230Z 33005KT 9999 FEW023 20/15 Q1027

時間: 22:54 (22:54 UTC)

予報

当レポートは5時間54分前の17:00(UTC)に作成
予報は17日の 18時(UTC)から 18日の 18時(UTC)まで有効
の風 10kt
視程10km以上
高度2000ftの雲は散在している
17日の 23時(UTC)から 18日の 02時(UTC)まで徐々に
北西の風 8kt
高度1500ftの雲は散在している
高度3000ftの雲は散在している
18日の 02時(UTC)から 18日の 12時(UTC)まで一時的に
高度1200ftの雲は散在している
高度2500ftの千切れ雲あり
確率 30% :
18日の 08時(UTC)から 18日の 18時(UTC)まで一時的に
視程: 5000m
高度600ftの雲はほとんどない
高度1200ftの千切れ雲あり
小雨, 霧雨

TAF: LPPD 171700Z 1718/1818 01010KT 9999 SCT020 BECMG 1723/1802 32008KT SCT015 SCT030 TEMPO 1802/1812 SCT012 BKN025 PROB30 TEMPO 1808/1818 5000 -RADZ FEW006 BKN012

4,000以上の空港の気象観測と天気予報(METAR報とTAF報)

利用可能な観測所は地図上に黄色い丸と赤い丸で示す。

丸の上にカーソルを重ねると観測所名を参照できる。

次にクリックすると気象観測と天気予報を参照できる。

マップの切り替え:黒色「×」印の緑ボタンをクリックして拡大、「-」印の緑ボタンをクリックして縮小、緑色の三角印をクリックして隣りの地図に切り替え


METAR-TAF: